Time;durP1;ratioP1;P1;durP2;ratioP2;P2;SDS_P1;SDS_P2;PMS_P1;PMS_P2;Temp;Humidity;BMP_temperature;BMP_pressure;BME280_temperature;BME280_humidity;BME280_pressure;Samples;Min_cycle;Max_cycle;Signal;HPM_P1;HPM_P2
2020/12/02 00:00:21;;;;;;;;;;;;;;;-0.23;74.00;98408.88;4953831;28;19955;-75
2020/12/02 00:02:53;;;;;;;;;;;;;;;-0.25;73.99;98413.63;4936511;28;19980;-75
2020/12/02 00:05:19;;;;;;;;;;;;;;;-0.27;73.96;98406.81;4953498;28;19922;-74
2020/12/02 00:07:47;;;;;;;;;;;;;;;-0.28;74.02;98405.19;4953718;28;20407;-75
2020/12/02 00:10:12;;;;;;;;;;;;;;;-0.35;74.29;98402.53;4953646;28;19941;-76
2020/12/02 00:12:37;;;;;;;;;;;;;;;-0.36;74.41;98403.56;4936830;28;19915;-75
2020/12/02 00:15:04;;;;;;;;;;;;;;;-0.33;74.42;98416.56;4953506;28;19914;-75
2020/12/02 00:17:30;;;;;;;;;;;;;;;-0.31;74.67;98408.28;4953499;28;19969;-75
2020/12/02 00:19:55;;;;;;;;;;;;;;;-0.26;74.70;98409.31;4953310;28;19923;-76
2020/12/02 00:22:21;;;;;;;;;;;;;;;-0.24;74.57;98417.97;4952355;28;20387;-75
2020/12/02 00:24:48;;;;;;;;;;;;;;;-0.25;73.83;98415.50;4952171;28;19950;-76
2020/12/02 00:27:14;;;;;;;;;;;;;;;-0.26;73.61;98413.84;4953382;28;19914;-75
2020/12/02 00:29:40;;;;;;;;;;;;;;;-0.23;73.61;98410.72;4953243;28;19914;-75
2020/12/02 00:32:05;;;;;;;;;;;;;;;-0.21;73.92;98417.53;4951963;28;19978;-74
2020/12/02 00:34:30;;;;;;;;;;;;;;;-0.22;74.34;98421.25;4953232;28;19968;-75
2020/12/02 00:36:55;;;;;;;;;;;;;;;-0.16;74.72;98422.28;4935719;28;19965;-75
2020/12/02 00:39:21;;;;;;;;;;;;;;;-0.20;74.28;98423.75;4936026;28;19922;-74
2020/12/02 00:41:47;;;;;;;;;;;;;;;-0.25;74.10;98427.06;4936006;29;19988;-75
2020/12/02 00:44:12;;;;;;;;;;;;;;;-0.31;74.19;98427.91;4936060;28;19918;-75
2020/12/02 00:46:38;;;;;;;;;;;;;;;-0.30;74.37;98429.56;4935736;28;19924;-74
2020/12/02 00:49:03;;;;;;;;;;;;;;;-0.23;74.18;98430.38;4953164;28;20012;-75
2020/12/02 00:51:28;;;;;;;;;;;;;;;-0.23;74.31;98425.00;4935878;28;20364;-75
2020/12/02 00:53:54;;;;;;;;;;;;;;;-0.26;74.73;98433.50;4952951;28;20380;-75
2020/12/02 00:56:20;;;;;;;;;;;;;;;-0.35;75.34;98421.34;4952796;28;19921;-75
2020/12/02 00:59:00;;;;;;;;;;;;;;;-0.41;75.97;98424.88;4935966;28;19907;-75
2020/12/02 01:01:38;;;;;;;;;;;;;;;-0.44;76.55;98422.63;4953026;28;19914;-75
2020/12/02 01:04:06;;;;;;;;;;;;;;;-0.40;76.44;98433.75;4935835;28;20267;-74
2020/12/02 01:06:32;;;;;;;;;;;;;;;-0.51;77.12;98423.69;4952985;28;19915;-75
2020/12/02 01:08:58;;;;;;;;;;;;;;;-0.50;77.21;98434.19;4952923;28;19937;-76
2020/12/02 01:11:27;;;;;;;;;;;;;;;-0.49;77.24;98432.34;4935828;28;19926;-75
2020/12/02 01:13:54;;;;;;;;;;;;;;;-0.57;77.77;98428.06;4953188;28;19942;-74
2020/12/02 01:16:25;;;;;;;;;;;;;;;-0.55;77.92;98425.97;4935699;28;19914;-75
2020/12/02 01:18:50;;;;;;;;;;;;;;;-0.59;77.86;98430.09;4952875;28;20017;-75
2020/12/02 01:21:34;;;;;;;;;;;;;;;-0.52;77.98;98430.09;4952844;28;20001;-75
2020/12/02 01:24:02;;;;;;;;;;;;;;;-0.52;77.92;98430.91;4953001;28;20009;-73
2020/12/02 01:26:30;;;;;;;;;;;;;;;-0.58;78.31;98421.84;4935430;28;20021;-74
2020/12/02 01:28:56;;;;;;;;;;;;;;;-0.59;78.46;98428.25;4935448;28;19918;-74
2020/12/02 01:31:23;;;;;;;;;;;;;;;-0.58;78.44;98426.41;4935386;28;20344;-75
2020/12/02 01:33:48;;;;;;;;;;;;;;;-0.55;77.79;98426.78;4952980;28;19922;-75
2020/12/02 01:36:14;;;;;;;;;;;;;;;-0.50;77.74;98423.44;4952929;28;19910;-75
2020/12/02 01:38:40;;;;;;;;;;;;;;;-0.46;77.26;98424.69;4952880;28;19965;-75
2020/12/02 01:41:08;;;;;;;;;;;;;;;-0.44;76.97;98427.16;4952957;28;19914;-76
2020/12/02 01:43:34;;;;;;;;;;;;;;;-0.48;77.13;98421.41;4953179;28;20396;-75
2020/12/02 01:46:08;;;;;;;;;;;;;;;-0.42;77.19;98423.22;4952846;28;19950;-75
2020/12/02 01:48:33;;;;;;;;;;;;;;;-0.48;77.71;98420.56;4953335;28;19914;-75
2020/12/02 01:51:04;;;;;;;;;;;;;;;-0.47;77.89;98420.34;4953455;28;19973;-75
2020/12/02 01:53:45;;;;;;;;;;;;;;;-0.41;78.15;98418.69;4952875;28;19919;-75
2020/12/02 01:56:15;;;;;;;;;;;;;;;-0.41;78.35;98411.44;4953473;28;19923;-76
2020/12/02 01:59:01;;;;;;;;;;;;;;;-0.47;78.64;98409.59;4953654;28;20443;-74
2020/12/02 02:01:26;;;;;;;;;;;;;;;-0.53;78.87;98410.44;4954075;28;20441;-75
2020/12/02 02:03:51;;;;;;;;;;;;;;;-0.47;78.11;98406.09;4954042;28;19918;-74
2020/12/02 02:06:21;;;;;;;;;;;;;;;-0.51;78.30;98405.72;4951952;28;19918;-75
2020/12/02 02:08:47;;;;;;;;;;;;;;;-0.48;78.58;98405.28;4938533;29;19965;-78
2020/12/02 02:11:17;;;;;;;;;;;;;;;-0.49;78.80;98409.00;4957195;29;19921;-74
2020/12/02 02:13:55;;;;;;;;;;;;;;;-0.48;78.66;98405.28;4938964;29;20017;-74
2020/12/02 02:16:23;;;;;;;;;;;;;;;-0.47;78.46;98404.22;4955612;29;19914;-76
2020/12/02 02:18:49;;;;;;;;;;;;;;;-0.45;78.21;98401.34;4938346;29;19921;-74
2020/12/02 02:21:15;;;;;;;;;;;;;;;-0.48;77.04;98401.75;4938410;29;19914;-75
2020/12/02 02:23:42;;;;;;;;;;;;;;;-0.49;77.10;98395.56;4938329;29;19925;-75
2020/12/02 02:26:26;;;;;;;;;;;;;;;-0.56;76.71;98386.69;4955598;29;19918;-76
2020/12/02 02:29:05;;;;;;;;;;;;;;;-0.58;76.50;98395.00;4955459;29;19990;-75
2020/12/02 02:31:35;;;;;;;;;;;;;;;-0.57;76.66;98387.75;4955349;29;20427;-75
2020/12/02 02:34:00;;;;;;;;;;;;;;;-0.55;76.31;98391.06;4955285;29;19914;-75
2020/12/02 02:36:27;;;;;;;;;;;;;;;-0.50;76.20;98388.53;4955455;29;20459;-75
2020/12/02 02:38:53;;;;;;;;;;;;;;;-0.52;76.62;98398.69;4937900;29;19941;-76
2020/12/02 02:41:19;;;;;;;;;;;;;;;-0.56;76.66;98397.44;4954621;29;20443;-75
2020/12/02 02:43:44;;;;;;;;;;;;;;;-0.54;76.69;98395.41;4937783;29;19921;-74
2020/12/02 02:46:09;;;;;;;;;;;;;;;-0.50;76.73;98387.72;4955132;29;20431;-75
2020/12/02 02:48:35;;;;;;;;;;;;;;;-0.49;76.43;98381.31;4954924;29;19964;-75
2020/12/02 02:51:00;;;;;;;;;;;;;;;-0.55;76.61;98388.38;4937923;29;19918;-75
2020/12/02 02:53:27;;;;;;;;;;;;;;;-0.57;76.92;98385.06;4954904;29;19914;-75
2020/12/02 02:55:53;;;;;;;;;;;;;;;-0.57;77.11;98385.91;4937834;29;19914;-75
2020/12/02 02:58:18;;;;;;;;;;;;;;;-0.52;76.92;98382.56;4955165;29;19921;-75
2020/12/02 03:00:44;;;;;;;;;;;;;;;-0.52;76.68;98387.94;4937875;29;19918;-75
2020/12/02 03:03:10;;;;;;;;;;;;;;;-0.49;76.75;98381.31;4954923;29;19961;-75
2020/12/02 03:05:36;;;;;;;;;;;;;;;-0.48;76.78;98383.78;4937563;29;19923;-75
2020/12/02 03:08:03;;;;;;;;;;;;;;;-0.54;76.58;98387.34;4937605;29;19925;-75
2020/12/02 03:10:30;;;;;;;;;;;;;;;-0.58;76.74;98392.31;4937631;29;19914;-75
2020/12/02 03:12:57;;;;;;;;;;;;;;;-0.55;76.35;98393.72;4937717;29;20364;-75
2020/12/02 03:15:22;;;;;;;;;;;;;;;-0.53;76.35;98386.28;4937675;29;19918;-75
2020/12/02 03:17:47;;;;;;;;;;;;;;;-0.58;76.16;98384.25;4955311;29;19914;-75
2020/12/02 03:20:15;;;;;;;;;;;;;;;-0.52;75.98;98381.72;4954870;28;19922;-75
2020/12/02 03:22:42;;;;;;;;;;;;;;;-0.53;75.82;98380.09;4954966;29;19946;-75
2020/12/02 03:25:11;;;;;;;;;;;;;;;-0.56;75.06;98373.28;4937291;29;19961;-75
2020/12/02 03:27:36;;;;;;;;;;;;;;;-0.52;75.17;98374.50;4954381;29;20001;-75
2020/12/02 03:30:03;;;;;;;;;;;;;;;-0.51;74.96;98386.06;4937179;29;20013;-76
2020/12/02 03:32:28;;;;;;;;;;;;;;;-0.57;75.17;98382.41;4954149;29;19918;-75
2020/12/02 03:34:54;;;;;;;;;;;;;;;-0.56;74.78;98386.69;4953944;29;19925;-75
2020/12/02 03:37:19;;;;;;;;;;;;;;;-0.56;74.74;98389.38;4937103;29;19914;-74
2020/12/02 03:39:44;;;;;;;;;;;;;;;-0.51;74.63;98389.59;4954288;29;19960;-74
2020/12/02 03:42:09;;;;;;;;;;;;;;;-0.53;74.69;98380.91;4933970;29;19972;-74
2020/12/02 03:44:35;;;;;;;;;;;;;;;-0.52;74.28;98369.13;4934352;29;19915;-75
2020/12/02 03:47:00;;;;;;;;;;;;;;;-0.49;73.63;98365.19;4926929;29;20014;-74
2020/12/02 03:49:25;;;;;;;;;;;;;;;-0.56;73.65;98365.22;4950190;28;19929;-74
2020/12/02 03:51:51;;;;;;;;;;;;;;;-0.62;73.92;98374.97;4963430;28;19989;-75
2020/12/02 03:54:16;;;;;;;;;;;;;;;-0.61;73.60;98373.09;4956530;28;19918;-74
2020/12/02 03:56:41;;;;;;;;;;;;;;;-0.61;73.65;98363.19;4943006;29;19974;-74
2020/12/02 03:59:07;;;;;;;;;;;;;;;-0.61;73.58;98362.38;4935536;29;19966;-74
2020/12/02 04:01:32;;;;;;;;;;;;;;;-0.65;74.12;98361.97;4937150;29;20025;-74
2020/12/02 04:03:57;;;;;;;;;;;;;;;-0.63;73.50;98356.41;4935101;29;19918;-74
2020/12/02 04:06:23;;;;;;;;;;;;;;;-0.65;73.63;98353.91;4942259;28;19915;-74
2020/12/02 04:08:48;;;;;;;;;;;;;;;-0.64;73.82;98352.06;4936620;28;19925;-74
2020/12/02 04:11:14;;;;;;;;;;;;;;;-0.63;73.54;98353.72;4953371;28;19965;-75
2020/12/02 04:13:39;;;;;;;;;;;;;;;-0.72;73.51;98352.31;4953968;28;20005;-74
2020/12/02 04:16:05;;;;;;;;;;;;;;;-0.70;74.01;98363.66;4953563;28;19915;-74
2020/12/02 04:18:31;;;;;;;;;;;;;;;-0.69;74.26;98347.31;4936242;28;19915;-74
2020/12/02 04:20:57;;;;;;;;;;;;;;;-0.68;73.60;98340.91;4936407;28;19918;-74
2020/12/02 04:23:22;;;;;;;;;;;;;;;-0.66;73.50;98348.75;4953293;28;20009;-74
2020/12/02 04:25:47;;;;;;;;;;;;;;;-0.65;73.52;98345.84;4953283;28;19922;-75
2020/12/02 04:28:13;;;;;;;;;;;;;;;-0.60;73.58;98358.66;4953120;28;19981;-75
2020/12/02 04:30:39;;;;;;;;;;;;;;;-0.59;73.00;98349.53;4952989;28;19918;-75
2020/12/02 04:33:04;;;;;;;;;;;;;;;-0.61;73.11;98343.56;4952586;28;19962;-74
2020/12/02 04:35:29;;;;;;;;;;;;;;;-0.69;72.87;98346.50;4953099;28;20471;-75
2020/12/02 04:37:55;;;;;;;;;;;;;;;-0.74;73.25;98335.56;4953226;28;20009;-75
2020/12/02 04:40:25;;;;;;;;;;;;;;;-0.68;73.38;98330.16;4952580;28;19918;-75
2020/12/02 04:42:54;;;;;;;;;;;;;;;-0.64;73.41;98325.19;4945484;28;19929;-73
2020/12/02 04:45:20;;;;;;;;;;;;;;;-0.69;73.43;98341.13;4934026;29;19915;-74
2020/12/02 04:47:45;;;;;;;;;;;;;;;-0.71;73.64;98335.97;4933829;29;19922;-75
2020/12/02 04:50:26;;;;;;;;;;;;;;;-0.78;73.38;98331.66;4934024;29;19922;-74
2020/12/02 04:53:00;;;;;;;;;;;;;;;-0.72;73.09;98333.50;4933858;29;19970;-74
2020/12/02 04:55:26;;;;;;;;;;;;;;;-0.69;73.29;98328.50;4933798;29;19954;-74
2020/12/02 04:57:51;;;;;;;;;;;;;;;-0.66;73.10;98327.28;4933723;29;20020;-75
2020/12/02 05:00:30;;;;;;;;;;;;;;;-0.77;73.37;98327.94;4933896;29;19919;-74
2020/12/02 05:03:10;;;;;;;;;;;;;;;-0.75;73.02;98332.06;4933795;29;20049;-74
2020/12/02 05:05:35;;;;;;;;;;;;;;;-0.68;72.89;98330.16;4933690;29;19915;-74
2020/12/02 05:08:24;;;;;;;;;;;;;;;-0.65;73.07;98334.28;4933684;29;19918;-74
2020/12/02 05:10:50;;;;;;;;;;;;;;;-0.71;73.01;98332.44;4921015;29;19921;-74
2020/12/02 05:13:16;;;;;;;;;;;;;;;-0.70;73.46;98326.88;4933587;29;19915;-74
2020/12/02 05:15:41;;;;;;;;;;;;;;;-0.71;73.50;98325.22;4916851;29;19919;-74
2020/12/02 05:18:09;;;;;;;;;;;;;;;-0.67;73.17;98322.94;4932350;29;19975;-74
2020/12/02 05:20:34;;;;;;;;;;;;;;;-0.61;73.29;98325.59;4933664;29;19962;-74
2020/12/02 05:23:08;;;;;;;;;;;;;;;-0.62;72.96;98323.94;4934077;29;19919;-74
2020/12/02 05:25:34;;;;;;;;;;;;;;;-0.67;73.08;98331.81;4935361;29;19921;-74
2020/12/02 05:28:17;;;;;;;;;;;;;;;-0.67;73.14;98326.44;4934363;29;19919;-74
2020/12/02 05:30:42;;;;;;;;;;;;;;;-0.62;73.50;98328.47;4916368;29;19947;-74
2020/12/02 05:33:10;;;;;;;;;;;;;;;-0.62;72.89;98345.41;4933859;29;19923;-75
2020/12/02 05:35:36;;;;;;;;;;;;;;;-0.60;73.12;98337.16;4933813;29;19949;-75
2020/12/02 05:38:03;;;;;;;;;;;;;;;-0.59;72.81;98336.94;4934079;29;19954;-74
2020/12/02 05:40:29;;;;;;;;;;;;;;;-0.56;72.96;98339.19;4934271;29;19922;-75
2020/12/02 05:43:06;;;;;;;;;;;;;;;-0.65;73.21;98340.47;4925990;28;19921;-74
2020/12/02 05:45:38;;;;;;;;;;;;;;;-0.63;73.45;98337.59;4958046;28;19954;-74
2020/12/02 05:48:06;;;;;;;;;;;;;;;-0.63;73.53;98342.97;4964487;28;19918;-75
2020/12/02 05:50:31;;;;;;;;;;;;;;;-0.53;73.21;98319.13;4976874;28;19933;-75
2020/12/02 05:53:12;;;;;;;;;;;;;;;-0.53;73.38;98326.38;4978647;28;20359;-75
2020/12/02 05:55:37;;;;;;;;;;;;;;;-0.51;73.59;98322.44;4954806;28;20009;-77
2020/12/02 05:58:09;;;;;;;;;;;;;;;-0.46;73.37;98319.09;4961668;28;19952;-77
2020/12/02 06:00:34;;;;;;;;;;;;;;;-0.51;73.75;98322.44;4960968;28;19934;-75
2020/12/02 06:03:00;;;;;;;;;;;;;;;-0.53;73.82;98311.06;4960365;28;20062;-75
2020/12/02 06:05:29;;;;;;;;;;;;;;;-0.48;73.80;98322.00;4974046;28;19960;-75
2020/12/02 06:07:59;;;;;;;;;;;;;;;-0.53;74.22;98321.00;4973551;28;20291;-76
2020/12/02 06:10:30;;;;;;;;;;;;;;;-0.57;74.28;98326.00;4973754;28;19918;-74
2020/12/02 06:12:55;;;;;;;;;;;;;;;-0.55;74.35;98323.91;4973694;28;19941;-75
2020/12/02 06:15:22;;;;;;;;;;;;;;;-0.55;74.47;98321.22;4974404;28;19914;-75
2020/12/02 06:17:47;;;;;;;;;;;;;;;-0.52;74.43;98325.31;4968510;28;20000;-75
2020/12/02 06:20:12;;;;;;;;;;;;;;;-0.47;74.59;98331.69;4974051;28;20005;-76
2020/12/02 06:22:51;;;;;;;;;;;;;;;-0.54;74.68;98336.31;4955851;28;19922;-74
2020/12/02 06:25:35;;;;;;;;;;;;;;;-0.46;74.73;98343.25;4941292;28;19923;-77
2020/12/02 06:28:01;;;;;;;;;;;;;;;-0.55;75.19;98340.84;4960176;28;19982;-74
2020/12/02 06:30:26;;;;;;;;;;;;;;;-0.52;75.12;98336.91;4951242;28;19914;-75
2020/12/02 06:32:59;;;;;;;;;;;;;;;-0.46;75.31;98338.72;4955133;28;19945;-74
2020/12/02 06:35:24;;;;;;;;;;;;;;;-0.49;75.36;98335.63;4954839;28;19914;-75
2020/12/02 06:38:08;;;;;;;;;;;;;;;-0.56;75.62;98333.81;4972665;28;20590;-75
2020/12/02 06:40:33;;;;;;;;;;;;;;;-0.52;75.91;98341.44;4970612;28;19917;-75
2020/12/02 06:43:04;;;;;;;;;;;;;;;-0.52;75.65;98344.97;4975244;28;19922;-75
2020/12/02 06:45:30;;;;;;;;;;;;;;;-0.57;76.04;98347.47;4968392;28;19918;-74
2020/12/02 06:47:57;;;;;;;;;;;;;;;-0.49;76.08;98343.69;4936067;29;20324;-74
2020/12/02 06:50:22;;;;;;;;;;;;;;;-0.46;75.87;98349.47;4935208;29;19906;-75
2020/12/02 06:52:50;;;;;;;;;;;;;;;-0.57;76.21;98336.72;4955165;29;19918;-75
2020/12/02 06:55:18;;;;;;;;;;;;;;;-0.53;76.30;98337.94;4954913;28;19925;-74
2020/12/02 06:57:44;;;;;;;;;;;;;;;-0.47;76.37;98342.44;4937547;29;19921;-75
2020/12/02 07:00:19;;;;;;;;;;;;;;;-0.47;76.35;98341.63;4954939;29;20295;-76
2020/12/02 07:02:44;;;;;;;;;;;;;;;-0.46;76.33;98336.03;4954949;29;19957;-78
2020/12/02 07:05:17;;;;;;;;;;;;;;;-0.43;76.18;98337.47;4945550;29;19965;-74
2020/12/02 07:07:43;;;;;;;;;;;;;;;-0.41;77.03;98344.28;4952591;28;20391;-76
2020/12/02 07:10:15;;;;;;;;;;;;;;;-0.34;76.46;98345.06;4955453;29;19910;-76
2020/12/02 07:12:41;;;;;;;;;;;;;;;-0.36;76.52;98341.75;4951246;29;20376;-76
2020/12/02 07:15:06;;;;;;;;;;;;;;;-0.41;76.41;98341.59;4952998;28;19949;-75
2020/12/02 07:17:31;;;;;;;;;;;;;;;-0.43;76.50;98343.66;4934675;29;19918;-76
2020/12/02 07:20:03;;;;;;;;;;;;;;;-0.46;76.62;98337.88;4958149;28;19954;-76
2020/12/02 07:22:31;;;;;;;;;;;;;;;-0.42;76.50;98339.13;4952222;28;19972;-76
2020/12/02 07:25:01;;;;;;;;;;;;;;;-0.35;75.72;98331.84;4951945;29;19914;-75
2020/12/02 07:27:26;;;;;;;;;;;;;;;-0.42;76.29;98339.94;4933117;29;19918;-75
2020/12/02 07:29:59;;;;;;;;;;;;;;;-0.42;76.15;98325.69;4952599;29;19918;-75
2020/12/02 07:32:25;;;;;;;;;;;;;;;-0.42;75.72;98331.06;4934897;29;19923;-74
2020/12/02 07:34:58;;;;;;;;;;;;;;;-0.36;75.06;98328.34;4962960;28;19933;-75
2020/12/02 07:37:24;;;;;;;;;;;;;;;-0.26;75.53;98334.06;4947343;28;19957;-75
2020/12/02 07:39:51;;;;;;;;;;;;;;;-0.29;73.91;98326.44;4952895;28;19949;-74
2020/12/02 07:42:25;;;;;;;;;;;;;;;-0.27;73.29;98327.03;4967336;28;20013;-75
2020/12/02 07:44:53;;;;;;;;;;;;;;;-0.33;73.72;98322.53;4948087;28;19937;-75
2020/12/02 07:47:18;;;;;;;;;;;;;;;-0.37;73.79;98310.56;4950929;28;19914;-74
2020/12/02 07:49:52;;;;;;;;;;;;;;;-0.30;73.44;98324.78;4964205;28;19914;-76
2020/12/02 07:52:26;;;;;;;;;;;;;;;-0.29;73.03;98314.84;4966306;28;19976;-75
2020/12/02 07:54:56;;;;;;;;;;;;;;;-0.31;73.79;98320.44;4952420;28;19922;-75
2020/12/02 07:57:23;;;;;;;;;;;;;;;-0.33;74.25;98310.94;4952455;28;19921;-74
2020/12/02 08:00:02;;;;;;;;;;;;;;;-0.42;75.64;98313.09;4952653;28;19954;-76
2020/12/02 08:02:28;;;;;;;;;;;;;;;-0.48;76.15;98308.56;4969831;28;19972;-74
2020/12/02 08:04:56;;;;;;;;;;;;;;;-0.55;77.56;98313.16;4952889;28;19902;-75
2020/12/02 08:07:23;;;;;;;;;;;;;;;-0.51;77.54;98310.88;4951350;28;20013;-74
2020/12/02 08:09:50;;;;;;;;;;;;;;;-0.56;79.04;98312.31;4970336;28;20402;-74
2020/12/02 08:12:15;;;;;;;;;;;;;;;-0.58;80.09;98310.91;4953358;28;19926;-75
2020/12/02 08:14:45;;;;;;;;;;;;;;;-0.86;81.60;98316.63;4971346;28;19918;-75
2020/12/02 08:17:36;;;;;;;;;;;;;;;-0.81;82.47;98308.75;4953223;28;19960;-74
2020/12/02 08:20:22;;;;;;;;;;;;;;;-0.98;83.04;98312.97;4949877;28;20091;-75
2020/12/02 08:22:49;;;;;;;;;;;;;;;-0.95;84.69;98320.59;4951424;29;19920;-74
2020/12/02 08:25:32;;;;;;;;;;;;;;;-0.99;85.58;98323.91;4949930;29;19954;-75
2020/12/02 08:27:59;;;;;;;;;;;;;;;-1.01;85.77;98328.69;4950368;29;20054;-75
2020/12/02 08:30:25;;;;;;;;;;;;;;;-1.01;85.22;98334.88;4949770;29;19903;-75
2020/12/02 08:32:54;;;;;;;;;;;;;;;-1.05;86.55;98324.75;4950350;29;20146;-75
2020/12/02 08:35:25;;;;;;;;;;;;;;;-1.09;86.85;98322.50;4965683;28;19902;-74
2020/12/02 08:37:55;;;;;;;;;;;;;;;-1.09;87.67;98321.66;4970450;28;19944;-75
2020/12/02 08:40:31;;;;;;;;;;;;;;;-1.12;88.73;98324.78;4970950;28;19912;-74
2020/12/02 08:43:15;;;;;;;;;;;;;;;-1.20;88.90;98320.50;4953955;28;19925;-75
2020/12/02 08:45:51;;;;;;;;;;;;;;;-1.28;89.72;98323.38;4952250;28;19945;-74
2020/12/02 08:48:16;;;;;;;;;;;;;;;-1.32;90.12;98324.88;4934113;28;19918;-74
2020/12/02 08:50:42;;;;;;;;;;;;;;;-1.18;90.71;98322.94;4934266;28;19914;-74
2020/12/02 08:53:07;;;;;;;;;;;;;;;-1.21;90.96;98318.84;4951268;28;19914;-74
2020/12/02 08:55:32;;;;;;;;;;;;;;;-1.17;91.62;98324.59;4951451;28;20359;-74
2020/12/02 08:57:58;;;;;;;;;;;;;;;-1.21;92.10;98323.38;4952199;28;19914;-74
2020/12/02 09:00:24;;;;;;;;;;;;;;;-1.21;91.82;98334.09;4952116;28;20363;-75
2020/12/02 09:02:50;;;;;;;;;;;;;;;-1.15;92.31;98333.25;4954458;29;19914;-75
2020/12/02 09:05:15;;;;;;;;;;;;;;;-1.19;92.96;98327.47;4935994;29;20001;-76
2020/12/02 09:07:41;;;;;;;;;;;;;;;-1.28;93.08;98328.75;4937415;29;19918;-75
2020/12/02 09:10:06;;;;;;;;;;;;;;;-1.22;93.12;98322.53;4951467;29;19937;-75
2020/12/02 09:12:32;;;;;;;;;;;;;;;-1.23;93.48;98331.66;4933845;29;20355;-75
2020/12/02 09:14:57;;;;;;;;;;;;;;;-1.23;94.31;98320.91;4952007;29;19954;-77
2020/12/02 09:17:22;;;;;;;;;;;;;;;-1.24;94.38;98326.47;4950341;28;20283;-75
2020/12/02 09:19:50;;;;;;;;;;;;;;;-1.25;94.81;98328.31;4937846;29;19918;-75
2020/12/02 09:22:15;;;;;;;;;;;;;;;-1.15;95.01;98327.88;4954649;28;19922;-75
2020/12/02 09:24:41;;;;;;;;;;;;;;;-1.28;95.25;98322.56;4953201;29;19928;-75
2020/12/02 09:27:06;;;;;;;;;;;;;;;-1.28;95.22;98326.06;4953127;29;19942;-74
2020/12/02 09:29:32;;;;;;;;;;;;;;;-1.12;95.39;98322.91;4953321;29;20282;-76
2020/12/02 09:31:57;;;;;;;;;;;;;;;-1.12;95.52;98312.19;4953583;29;19929;-77
2020/12/02 09:34:22;;;;;;;;;;;;;;;-1.18;95.38;98315.72;4960132;28;19918;-75
2020/12/02 09:36:48;;;;;;;;;;;;;;;-1.12;95.49;98311.34;4955583;28;20440;-76
2020/12/02 09:39:13;;;;;;;;;;;;;;;-1.15;96.14;98317.16;4937348;29;19965;-76
2020/12/02 09:41:54;;;;;;;;;;;;;;;-1.10;95.99;98310.09;4953974;29;19919;-75
2020/12/02 09:44:19;;;;;;;;;;;;;;;-1.05;96.07;98306.81;4937540;29;19921;-73
2020/12/02 09:46:47;;;;;;;;;;;;;;;-1.08;95.83;98308.06;4937491;29;19918;-74
2020/12/02 09:49:12;;;;;;;;;;;;;;;-1.13;95.96;98304.38;4937253;29;19918;-74
2020/12/02 09:51:39;;;;;;;;;;;;;;;-1.13;95.55;98291.75;4954380;29;19917;-76
2020/12/02 09:54:07;;;;;;;;;;;;;;;-1.11;96.01;98307.66;4954688;29;19918;-75
2020/12/02 09:56:40;;;;;;;;;;;;;;;-1.23;96.29;98307.50;4954636;29;19919;-74
2020/12/02 09:59:06;;;;;;;;;;;;;;;-1.11;96.19;98299.59;4954485;29;19977;-75
2020/12/02 10:02:07;;;;;;;;;;;;;;;-1.14;96.13;98287.44;4954083;29;20405;-75
2020/12/02 10:04:50;;;;;;;;;;;;;;;-1.12;95.82;98292.56;4894836;29;19971;-75
2020/12/02 10:07:27;;;;;;;;;;;;;;;-1.19;95.91;98295.28;4931390;29;19918;-74
2020/12/02 10:10:11;;;;;;;;;;;;;;;-1.18;95.82;98285.38;4917791;29;20359;-74
2020/12/02 10:12:44;;;;;;;;;;;;;;;-1.09;96.59;98278.72;4917726;29;19914;-75
2020/12/02 10:15:12;;;;;;;;;;;;;;;-1.11;96.74;98260.19;4935033;29;20295;-74
2020/12/02 10:17:38;;;;;;;;;;;;;;;-1.08;96.12;98265.13;4917445;29;19918;-75
2020/12/02 10:20:03;;;;;;;;;;;;;;;-1.12;95.66;98268.44;4922355;29;19926;-74
2020/12/02 10:22:36;;;;;;;;;;;;;;;-1.16;95.64;98257.28;4953596;28;20005;-74
2020/12/02 10:25:10;;;;;;;;;;;;;;;-1.04;95.46;98262.84;4936607;29;19918;-74
2020/12/02 10:27:36;;;;;;;;;;;;;;;-1.08;95.80;98262.44;4953568;29;19915;-74
2020/12/02 10:30:24;;;;;;;;;;;;;;;-1.13;95.67;98251.50;4934677;29;19921;-74
2020/12/02 10:32:56;;;;;;;;;;;;;;;-1.19;95.37;98246.19;4945973;29;20283;-75
2020/12/02 10:35:22;;;;;;;;;;;;;;;-1.13;95.82;98251.50;4953896;29;20131;-75
2020/12/02 10:37:48;;;;;;;;;;;;;;;-1.07;95.91;98247.16;4966035;28;20323;-76
2020/12/02 10:40:14;;;;;;;;;;;;;;;-1.16;95.48;98233.16;4955487;28;19925;-75
2020/12/02 10:43:02;;;;;;;;;;;;;;;-1.18;95.58;98232.53;4967326;28;20402;-74
2020/12/02 10:45:28;;;;;;;;;;;;;;;-1.18;95.61;98232.53;4936679;29;19921;-74
2020/12/02 10:47:56;;;;;;;;;;;;;;;-1.12;95.82;98229.00;4953273;29;19989;-74
2020/12/02 10:50:24;;;;;;;;;;;;;;;-1.09;95.37;98230.44;4935788;29;19907;-74
2020/12/02 10:52:51;;;;;;;;;;;;;;;-1.12;95.62;98229.00;4953227;29;19977;-76
2020/12/02 10:55:18;;;;;;;;;;;;;;;-1.07;94.88;98226.50;4952870;29;19965;-74
2020/12/02 10:57:43;;;;;;;;;;;;;;;-1.01;94.89;98221.31;4935487;29;19918;-74
2020/12/02 11:00:12;;;;;;;;;;;;;;;-1.03;95.32;98218.84;4952657;28;19922;-74
2020/12/02 11:02:38;;;;;;;;;;;;;;;-1.11;95.93;98211.06;4970060;28;19921;-74
2020/12/02 11:05:05;;;;;;;;;;;;;;;-1.11;96.08;98208.38;4953166;28;19918;-74
2020/12/02 11:07:30;;;;;;;;;;;;;;;-1.13;96.51;98213.94;4953194;28;19925;-75
2020/12/02 11:10:05;;;;;;;;;;;;;;;-1.10;96.25;98213.50;4970233;28;20357;-74
2020/12/02 11:12:36;;;;;;;;;;;;;;;-1.00;95.73;98207.66;4970904;28;19945;-74
2020/12/02 11:15:07;;;;;;;;;;;;;;;-1.11;95.61;98201.16;4966585;28;19926;-76
2020/12/02 11:17:41;;;;;;;;;;;;;;;-1.12;96.29;98204.84;4951092;28;20269;-74
2020/12/02 11:20:08;;;;;;;;;;;;;;;-1.12;96.37;98196.81;4944710;29;20294;-74
2020/12/02 11:22:52;;;;;;;;;;;;;;;-0.92;96.18;98201.25;4952776;29;19922;-77
2020/12/02 11:25:26;;;;;;;;;;;;;;;-0.98;96.46;98196.72;4934162;29;19918;-74
2020/12/02 11:27:51;;;;;;;;;;;;;;;-1.08;96.66;98194.53;4952180;28;19918;-74
2020/12/02 11:30:23;;;;;;;;;;;;;;;-0.99;96.47;98198.59;4935342;28;19914;-74
2020/12/02 11:33:03;;;;;;;;;;;;;;;-1.03;96.61;98185.84;4935394;28;20314;-74
2020/12/02 11:35:31;;;;;;;;;;;;;;;-1.13;95.98;98192.47;4952471;28;19914;-74
2020/12/02 11:38:03;;;;;;;;;;;;;;;-1.12;96.82;98198.66;4934902;29;19918;-74
2020/12/02 11:40:34;;;;;;;;;;;;;;;-1.18;96.68;98191.47;4952057;28;19965;-75
2020/12/02 11:43:05;;;;;;;;;;;;;;;-1.14;96.59;98188.16;4934960;29;20745;-75
2020/12/02 11:45:30;;;;;;;;;;;;;;;-1.07;96.25;98190.81;4952752;29;19952;-74
2020/12/02 11:48:07;;;;;;;;;;;;;;;-1.01;96.48;98191.78;4934599;29;19966;-75
2020/12/02 11:50:39;;;;;;;;;;;;;;;-1.12;96.50;98188.75;4934630;29;19914;-75
2020/12/02 11:53:23;;;;;;;;;;;;;;;-0.96;96.03;98186.59;4952774;28;19918;-75
2020/12/02 11:55:50;;;;;;;;;;;;;;;-0.96;96.26;98175.84;4953630;28;20050;-74
2020/12/02 11:58:16;;;;;;;;;;;;;;;-1.02;96.41;98179.41;4957847;28;19918;-76
2020/12/02 12:00:41;;;;;;;;;;;;;;;-0.99;97.03;98184.34;4952106;28;20016;-76
2020/12/02 12:03:10;;;;;;;;;;;;;;;-0.93;97.55;98173.56;4934773;28;19969;-76
2020/12/02 12:05:55;;;;;;;;;;;;;;;-0.94;97.34;98163.06;4951821;28;19922;-76
2020/12/02 12:08:29;;;;;;;;;;;;;;;-1.03;98.06;98164.38;4951281;28;19918;-77
2020/12/02 12:11:15;;;;;;;;;;;;;;;-1.00;97.08;98166.63;4951596;28;19982;-76
2020/12/02 12:13:40;;;;;;;;;;;;;;;-0.96;97.54;98157.06;4938095;28;19974;-77
2020/12/02 12:16:18;;;;;;;;;;;;;;;-1.00;96.45;98159.34;4952231;28;19914;-77
2020/12/02 12:18:49;;;;;;;;;;;;;;;-1.08;96.94;98176.56;4951266;28;19925;-77
2020/12/02 12:21:42;;;;;;;;;;;;;;;-1.15;96.85;98175.78;4950857;28;19918;-76
2020/12/02 12:24:09;;;;;;;;;;;;;;;-1.11;97.57;98168.13;4951343;28;19915;-77
2020/12/02 12:26:37;;;;;;;;;;;;;;;-1.10;97.31;98175.94;4951675;28;20332;-77
2020/12/02 12:29:04;;;;;;;;;;;;;;;-1.06;97.70;98160.22;4951336;28;19918;-77
2020/12/02 12:31:33;;;;;;;;;;;;;;;-1.05;97.83;98155.69;4951410;28;20384;-76
2020/12/02 12:34:06;;;;;;;;;;;;;;;-1.01;97.63;98167.66;4952098;28;19957;-75
2020/12/02 12:36:32;;;;;;;;;;;;;;;-1.13;97.33;98173.69;4949692;29;19910;-77
2020/12/02 12:39:04;;;;;;;;;;;;;;;-1.16;98.05;98173.31;4951275;29;19961;-75
2020/12/02 12:41:37;;;;;;;;;;;;;;;-1.19;98.62;98177.22;4951094;29;19997;-75
2020/12/02 12:44:09;;;;;;;;;;;;;;;-1.07;98.21;98153.25;4951813;29;19929;-75
2020/12/02 12:46:52;;;;;;;;;;;;;;;-0.92;98.13;98140.31;4952451;29;20284;-77
2020/12/02 12:49:18;;;;;;;;;;;;;;;-0.91;97.81;98152.72;4952551;29;20008;-75
2020/12/02 12:51:45;;;;;;;;;;;;;;;-0.95;97.19;98151.50;4952337;28;19966;-77
2020/12/02 12:54:13;;;;;;;;;;;;;;;-1.09;97.16;98142.72;4951951;28;20377;-75
2020/12/02 12:56:39;;;;;;;;;;;;;;;-1.15;97.60;98134.69;4935292;28;20707;-74